Relevés horaires Antwerpen / Deurne (Belgique)


Relevés horaires à Antwerpen / Deurne - Lundi 22 Mai 2017
Heure UTC1 Température [°C] Vent [km/h] Hum. [%] Pres.4 [hPa] Visi. [Km] Nébu. [octa] Préc.5 [mm] Cond.
2m. Res. Ros. Dir.2 Vit. Moy. Raf.3
23:00 19.6 19.6 10.0 SO 5.6 5.6 5.6 54 1015.3(0.1/3h) 45 0/8 -- --
22:00 20.7 20.7 9.7 OSO 1.9 5.6 7.4 49 1015.9(0.9/3h) 45 0/8 -- --
21:00 21.8 21.8 9.4 OSO 5.6 5.6 7.4 45 1016(0.8/3h) 50 7/8 -- --
20:00 20.0 20.0 10.9 NNO 0.0 3.7 3.7 56 1015.4(-0.1/3h) 50 7/8 -- --
19:00 21.8 21.8 9.8 ESE 3.7 3.7 5.6 46 1015(-0.6/3h) 50 7/8 -- --
18:00 23.7 23.7 9.4 E 3.7 9.3 14.8 40 1015.2(-1.1/3h) 50 6/8 0/12h
--
17:00 24.6 24.6 9.4 SE 3.7 5.6 7.4 38 1015.4(-1.5/3h) 30 7/8 -- --
16:00 23.8 23.8 8.5 ESE 3.7 5.6 9.3 38 1015.7(-1.7/3h) 30 7/8 -- --
15:00 24.6 24.6 7.3 SSO 5.6 9.3 14.8 33 1016.3(-1.6/3h) 30 6/8 -- --
14:00 25.1 25.1 8.0 SSE 5.6 9.3 14.8 34 1016.9(-1.2/3h) 30 6/8 -- --
13:00 23.8 23.8 8.1 SE 7.4 7.4 13.0 37 1017.4(-1.2/3h) 30 6/8 -- --
12:00 23.5 23.5 7.1 SE 7.4 9.3 14.8 35 1017.9(-1.3/3h) 30 6/8 0/6h
--
11:00 22.7 22.7 6.5 SE 5.6 7.4 13.0 35 1018.1(-1.6/3h) 30 6/8 -- --
10:00 21.8 21.8 9.7 ESE 5.6 5.6 11.1 46 1018.6(-1.4/3h) 30 6/8 -- --
09:00 20.5 20.5 9.8 ESE 3.7 5.6 9.3 50 1019.2(-0.9/3h) 30 4/8 -- --
08:00 18.7 18.7 10.1 E 3.7 5.6 7.4 57 1019.7(-0.4/3h) 30 4/8 -- --
07:00 16.0 16.0 9.8 ESE 3.7 5.6 5.6 67 1020(-0.2/3h) 30 2/8 -- --
06:00 13.4 13.4 9.0 ESE 3.7 3.7 5.6 75 1020.2(-0.4/3h) 30 2/8 0/12h
--
05:00 11.0 11.0 7.8 E 1.9 1.9 1.9 81 1020.2(-0.9/3h) 30 1/8 -- --
04:00 8.2 8.2 5.6 E 1.9 1.9 1.9 84 1020.3(-1.2/3h) 19 0/8 -- --
03:00 8.7 8.7 6.0 E 1.9 3.7 3.7 83 1020.6(-1.5/3h) 25 0/8 -- --
02:00 9.8 9.8 6.9 E 1.9 3.7 3.7 82 1021.1(-1.3/3h) 35 0/8 -- --
01:00 9.8 9.8 6.4 E 3.7 3.7 3.7 79 1021.5(-1.3/3h) 45 0/8 -- --
00:00 10.5 10.5 6.3 E 1.9 5.6 9.3 75 1022.1(-0.9/3h) 45 0/8 0/6h
0/24h
--

1 Coordinated Universal Time. Actuellement il est 09:00 locale et 08:00 UTC.

2 Le vent souffle depuis la direction indiquée vers la direction oposée.

3 Les rafales max. sont disponible 40 min après l'heure du relevé.

4 Pour les stations d'altitude (plus de 600m) le géopotentiel du niveau le plus proche de la pression obligatoire est indiqué.

5 Les stations disposant d'un diffuseur peuvent indiquer "trace". Cela signifie que des précipitations ont touchés le sol mais que la quantité est inférieure à 0.1 mm.

Récapitulatif de la journée
Température [°C] Vent [km/h] Ensoleillement4 [h] Precipitations totale5 [mm] Pression [Hpa]
Min1 Max.2 Moy.3 Max. Min Max.
7.3 25.2 5.6 14.8 0 h 0 min 0 1015.0 1022.1

1 Température minimale relevée entre 18:00 UTC la veille et 18:00 UTC le jour donné.

2 Température maximale relevée entre 06:00 UTC le jour donné et 06:00 UTC le lendemain.

3 Vent moyen de la journée basé sur les relevés horaires.

4 Ensoleillement en heures relevé entre 06:00 UTC la veille et 06:00 UTC le jour donné.

5 Précipitations totales tombées entre 06:00 UTC la jour donné et 06:00 UTC le lendemain.

Graphiques horaires